createdAt,value
2023-03-29T00:01:43.573Z,6.20
2023-03-29T00:04:47.272Z,9.18
2023-03-29T00:07:54.522Z,7.13
2023-03-29T00:10:59.556Z,7.05
2023-03-29T00:14:02.824Z,5.95
2023-03-29T00:17:06.700Z,4.53
2023-03-29T00:20:10.491Z,6.13
2023-03-29T00:23:13.542Z,5.03
2023-03-29T00:26:16.605Z,4.30
2023-03-29T00:29:19.870Z,4.05
2023-03-29T00:32:22.802Z,5.33
2023-03-29T00:35:25.959Z,5.75
2023-03-29T00:38:28.869Z,6.10
2023-03-29T00:41:32.011Z,5.28
2023-03-29T00:44:59.742Z,5.87
2023-03-29T00:48:07.283Z,6.55
2023-03-29T00:51:14.534Z,6.87
2023-03-29T00:54:18.917Z,6.40
2023-03-29T00:57:26.483Z,5.00
2023-03-29T01:00:37.582Z,4.03
2023-03-29T01:03:46.716Z,6.60
2023-03-29T01:07:01.183Z,9.60
2023-03-29T01:10:19.707Z,11.97
2023-03-29T01:13:39.516Z,9.90
2023-03-29T01:16:42.779Z,11.50
2023-03-29T01:19:51.093Z,8.85
2023-03-29T01:23:03.082Z,9.30
2023-03-29T01:26:40.408Z,11.48
2023-03-29T01:29:50.278Z,11.30
2023-03-29T01:33:14.624Z,10.25
2023-03-29T01:36:37.865Z,11.83
2023-03-29T01:39:40.960Z,11.50
2023-03-29T01:43:19.412Z,15.60
2023-03-29T01:46:46.045Z,14.70
2023-03-29T01:50:02.019Z,17.47
2023-03-29T01:53:25.703Z,13.60
2023-03-29T01:56:30.196Z,17.15
2023-03-29T01:59:36.228Z,12.23
2023-03-29T02:02:43.503Z,6.80
2023-03-29T02:05:47.051Z,12.77
2023-03-29T02:08:51.697Z,18.00
2023-03-29T02:11:59.051Z,16.02
2023-03-29T02:15:02.318Z,18.00
2023-03-29T02:18:06.894Z,19.95
2023-03-29T02:21:21.636Z,15.18
2023-03-29T02:24:26.416Z,16.17
2023-03-29T02:27:30.259Z,16.27
2023-03-29T02:30:57.944Z,16.27
2023-03-29T02:34:09.031Z,17.30
2023-03-29T02:37:18.170Z,16.83
2023-03-29T02:40:24.009Z,14.30
2023-03-29T02:43:29.256Z,13.35
2023-03-29T02:46:32.828Z,41.05
2023-03-29T02:49:35.687Z,31.20
2023-03-29T02:52:43.506Z,41.95
2023-03-29T02:55:47.164Z,69.55
2023-03-29T02:58:50.773Z,68.87
2023-03-29T03:01:54.042Z,41.15
2023-03-29T03:04:58.049Z,29.33
2023-03-29T03:08:01.289Z,34.42
2023-03-29T03:11:06.154Z,26.17
2023-03-29T03:14:09.660Z,17.08
2023-03-29T03:17:12.853Z,17.73
2023-03-29T03:20:15.776Z,23.15
2023-03-29T03:23:19.376Z,25.58
2023-03-29T03:26:25.162Z,18.70
2023-03-29T03:29:29.162Z,22.45
2023-03-29T03:32:36.985Z,32.50
2023-03-29T03:35:42.857Z,33.42
2023-03-29T03:38:46.346Z,41.58
2023-03-29T03:41:49.449Z,39.55
2023-03-29T03:44:52.353Z,31.80
2023-03-29T03:47:56.907Z,27.62
2023-03-29T03:51:00.503Z,34.13
2023-03-29T03:54:05.830Z,36.38
2023-03-29T03:57:11.847Z,32.78
2023-03-29T04:00:21.650Z,20.65
2023-03-29T04:03:25.572Z,18.73
2023-03-29T04:06:30.819Z,14.80
2023-03-29T04:09:37.817Z,11.57
2023-03-29T04:12:42.175Z,11.23
2023-03-29T04:15:46.303Z,15.02
2023-03-29T04:18:50.482Z,13.03
2023-03-29T04:21:53.864Z,17.25
2023-03-29T04:24:57.570Z,19.98
2023-03-29T04:28:03.016Z,13.10
2023-03-29T04:31:12.673Z,14.33
2023-03-29T04:37:22.374Z,14.70
2023-03-29T04:40:25.704Z,16.50
2023-03-29T04:43:30.867Z,15.67
2023-03-29T04:46:35.033Z,19.35
2023-03-29T04:49:40.118Z,18.42
2023-03-29T04:52:45.763Z,20.88
2023-03-29T04:55:48.888Z,18.00
2023-03-29T04:58:52.420Z,28.40
2023-03-29T05:01:57.396Z,19.73
2023-03-29T05:05:00.800Z,19.67
2023-03-29T05:08:05.004Z,17.40
2023-03-29T05:11:11.103Z,11.88
2023-03-29T05:14:14.021Z,16.62
2023-03-29T05:17:17.306Z,13.68
2023-03-29T05:20:20.310Z,20.37
2023-03-29T05:23:24.038Z,15.60
2023-03-29T05:26:29.912Z,15.63
2023-03-29T05:29:33.322Z,18.75
2023-03-29T05:32:40.759Z,28.73
2023-03-29T05:35:44.429Z,30.25
2023-03-29T05:38:47.463Z,31.52
2023-03-29T05:41:50.889Z,26.85
2023-03-29T05:44:54.897Z,37.10
2023-03-29T05:47:58.912Z,31.65
2023-03-29T05:51:03.775Z,12.60
2023-03-29T05:54:07.251Z,16.67
2023-03-29T05:57:10.165Z,16.83
2023-03-29T06:00:22.658Z,17.98
2023-03-29T06:03:27.799Z,21.87
2023-03-29T06:06:32.046Z,20.25
2023-03-29T06:09:35.430Z,15.38
2023-03-29T06:12:39.085Z,13.88
2023-03-29T06:15:42.262Z,15.30
2023-03-29T06:18:45.492Z,13.90
2023-03-29T06:21:48.841Z,15.95
2023-03-29T06:24:52.938Z,13.67
2023-03-29T06:27:57.761Z,19.40
2023-03-29T06:31:03.632Z,14.82
2023-03-29T06:34:09.099Z,14.40
2023-03-29T06:37:14.228Z,17.77
2023-03-29T06:40:25.035Z,12.85
2023-03-29T06:43:28.111Z,11.15
2023-03-29T06:46:38.040Z,13.95
2023-03-29T06:49:41.533Z,15.52
2023-03-29T06:52:46.349Z,14.00
2023-03-29T06:55:52.316Z,13.48
2023-03-29T06:58:56.983Z,13.05
2023-03-29T07:02:01.181Z,12.37
2023-03-29T07:05:11.584Z,11.30
2023-03-29T07:08:16.703Z,11.10
2023-03-29T07:11:20.920Z,18.55
2023-03-29T07:14:28.893Z,10.43
2023-03-29T07:17:32.551Z,25.52
2023-03-29T07:20:38.807Z,10.77
2023-03-29T07:23:42.298Z,10.03
2023-03-29T07:27:00.205Z,8.45
2023-03-29T07:30:11.710Z,9.20
2023-03-29T07:33:15.037Z,8.18
2023-03-29T07:36:19.927Z,12.93
2023-03-29T07:39:23.244Z,13.33
2023-03-29T07:42:30.504Z,12.68
2023-03-29T07:45:34.022Z,12.55
2023-03-29T07:48:37.474Z,8.90
2023-03-29T07:51:40.393Z,4.70
2023-03-29T07:54:43.940Z,12.30
2023-03-29T07:57:47.120Z,12.88
2023-03-29T08:00:50.987Z,9.43
2023-03-29T08:03:55.403Z,9.95
2023-03-29T08:06:59.998Z,13.90
2023-03-29T08:10:04.258Z,7.37
2023-03-29T08:13:09.585Z,7.72
2023-03-29T08:16:13.215Z,8.80
2023-03-29T08:19:16.861Z,6.55
2023-03-29T08:22:22.213Z,8.03
2023-03-29T08:25:33.734Z,4.77
2023-03-29T08:28:36.873Z,7.60
2023-03-29T08:31:40.466Z,5.50
2023-03-29T08:34:44.150Z,5.68
2023-03-29T08:37:47.690Z,4.97
2023-03-29T08:40:50.955Z,7.43
2023-03-29T08:44:16.929Z,9.13
2023-03-29T08:47:30.084Z,7.22
2023-03-29T08:50:39.498Z,4.85
2023-03-29T08:53:47.195Z,8.33
2023-03-29T08:56:52.387Z,7.33
2023-03-29T08:59:58.663Z,9.05
2023-03-29T09:03:03.085Z,8.45
2023-03-29T09:06:09.204Z,4.70
2023-03-29T09:09:17.794Z,7.77
2023-03-29T09:12:44.572Z,3.60
2023-03-29T09:16:06.025Z,6.62
2023-03-29T09:19:25.968Z,5.28
2023-03-29T09:22:46.877Z,5.45
2023-03-29T09:25:59.141Z,5.43
2023-03-29T09:29:23.971Z,5.53
2023-03-29T09:32:44.361Z,4.55
2023-03-29T09:35:55.537Z,5.32
2023-03-29T09:38:59.914Z,6.22
2023-03-29T09:42:09.402Z,5.37
2023-03-29T09:45:13.473Z,6.57
2023-03-29T09:48:19.562Z,8.50
2023-03-29T09:51:28.486Z,5.75
2023-03-29T09:54:32.776Z,5.82
2023-03-29T09:57:40.976Z,7.50
2023-03-29T10:00:45.579Z,5.13
2023-03-29T10:03:53.602Z,5.55
2023-03-29T10:07:00.366Z,4.57
2023-03-29T10:10:08.437Z,4.53
2023-03-29T10:13:19.194Z,6.07
2023-03-29T10:16:24.924Z,4.80
2023-03-29T10:19:35.112Z,4.75
2023-03-29T10:22:40.660Z,5.45
2023-03-29T10:25:43.527Z,4.50
2023-03-29T10:28:46.816Z,4.63
2023-03-29T10:31:50.568Z,4.97
2023-03-29T10:34:54.924Z,5.53
2023-03-29T10:37:59.623Z,4.60
2023-03-29T10:41:11.883Z,3.92
2023-03-29T10:44:29.337Z,5.10
2023-03-29T10:47:34.604Z,4.20
2023-03-29T10:50:38.437Z,6.62
2023-03-29T10:53:42.838Z,4.25
2023-03-29T10:56:58.266Z,5.82
2023-03-29T11:00:27.376Z,4.13
2023-03-29T11:03:40.685Z,4.60
2023-03-29T11:06:56.528Z,4.03
2023-03-29T11:10:28.641Z,6.10
2023-03-29T11:14:23.672Z,5.07
2023-03-29T11:17:32.820Z,8.10
2023-03-29T11:20:44.943Z,5.93
2023-03-29T11:24:13.164Z,9.23
2023-03-29T11:27:30.295Z,5.22
2023-03-29T11:30:48.662Z,4.22
2023-03-29T11:34:15.791Z,5.17
2023-03-29T11:37:50.046Z,3.47
2023-03-29T11:41:11.178Z,4.97
2023-03-29T11:44:19.881Z,4.75
2023-03-29T11:47:27.658Z,4.05
2023-03-29T11:50:45.179Z,8.13
2023-03-29T11:53:58.610Z,4.47
2023-03-29T11:57:12.550Z,4.65
2023-03-29T12:00:19.373Z,4.62
2023-03-29T12:03:44.740Z,6.95
2023-03-29T12:07:24.242Z,11.43
2023-03-29T12:10:36.532Z,4.17
2023-03-29T12:13:45.316Z,5.62
2023-03-29T12:16:57.565Z,4.28
2023-03-29T12:20:07.295Z,5.10
2023-03-29T12:23:17.033Z,5.90
2023-03-29T12:26:40.737Z,5.73
2023-03-29T12:30:03.037Z,4.93
2023-03-29T12:33:29.518Z,5.68
2023-03-29T12:36:57.701Z,5.10
2023-03-29T12:40:13.239Z,4.23
2023-03-29T12:43:33.020Z,7.20
2023-03-29T12:46:36.894Z,5.15
2023-03-29T12:49:41.104Z,4.55
2023-03-29T12:52:43.955Z,4.07
2023-03-29T12:55:50.772Z,4.40
2023-03-29T12:59:12.039Z,5.90
2023-03-29T13:02:15.973Z,5.22
2023-03-29T13:05:34.848Z,4.37
2023-03-29T13:08:44.170Z,3.20
2023-03-29T13:11:57.420Z,2.90
2023-03-29T13:15:06.406Z,4.17
2023-03-29T13:18:48.868Z,3.25
2023-03-29T13:22:07.609Z,4.20
2023-03-29T13:25:41.598Z,3.10
2023-03-29T13:29:19.012Z,7.63
2023-03-29T13:32:28.069Z,3.33
2023-03-29T13:35:40.318Z,5.65
2023-03-29T13:38:51.922Z,7.45
2023-03-29T13:42:07.391Z,8.70
2023-03-29T13:45:17.549Z,8.23
2023-03-29T13:48:30.059Z,4.27
2023-03-29T13:51:37.288Z,4.65
2023-03-29T13:55:02.235Z,4.75
2023-03-29T13:58:14.184Z,4.53
2023-03-29T14:01:23.489Z,5.40
2023-03-29T14:04:34.624Z,6.90
2023-03-29T14:07:40.217Z,4.55
2023-03-29T14:10:45.520Z,3.12
2023-03-29T14:13:49.202Z,4.00
2023-03-29T14:16:54.320Z,2.90
2023-03-29T14:19:59.773Z,3.87
2023-03-29T14:23:10.471Z,6.82
2023-03-29T14:26:19.184Z,15.43
2023-03-29T14:29:25.040Z,29.02
2023-03-29T14:32:31.139Z,6.50
2023-03-29T14:35:34.798Z,4.90
2023-03-29T14:38:38.189Z,4.55
2023-03-29T14:41:47.867Z,5.32
2023-03-29T14:44:51.250Z,4.82
2023-03-29T14:47:54.797Z,4.67
2023-03-29T14:50:57.933Z,7.40
2023-03-29T14:54:04.144Z,3.87
2023-03-29T14:57:07.595Z,8.65
2023-03-29T15:00:26.261Z,6.18
2023-03-29T15:03:29.653Z,8.27
2023-03-29T15:06:38.750Z,7.37
2023-03-29T15:09:45.335Z,4.47
2023-03-29T15:12:49.821Z,7.53
2023-03-29T15:15:56.692Z,5.72
2023-03-29T15:19:02.238Z,7.37
2023-03-29T15:22:11.819Z,8.27
2023-03-29T15:25:19.981Z,5.32
2023-03-29T15:28:30.190Z,8.07
2023-03-29T15:31:36.296Z,4.80
2023-03-29T15:34:39.413Z,4.00
2023-03-29T15:37:43.813Z,3.77
2023-03-29T15:40:48.470Z,4.32
2023-03-29T15:43:51.664Z,3.12
2023-03-29T15:47:00.022Z,5.25
2023-03-29T15:50:03.467Z,4.13
2023-03-29T15:53:15.197Z,4.60
2023-03-29T15:56:23.157Z,7.37
2023-03-29T15:59:26.373Z,4.18
2023-03-29T16:02:29.987Z,4.97
2023-03-29T16:05:33.760Z,26.57
2023-03-29T16:08:36.806Z,36.83
2023-03-29T16:11:41.998Z,12.63
2023-03-29T16:14:45.176Z,17.23
2023-03-29T16:17:48.571Z,19.62
2023-03-29T16:20:52.029Z,10.30
2023-03-29T16:23:55.618Z,4.80
2023-03-29T16:26:59.962Z,6.10
2023-03-29T16:30:04.064Z,2.45
2023-03-29T16:33:08.969Z,3.40
2023-03-29T16:36:12.626Z,3.50
2023-03-29T16:39:16.414Z,2.33
2023-03-29T16:42:19.618Z,2.70
2023-03-29T16:45:23.595Z,5.22
2023-03-29T16:48:27.325Z,3.35
2023-03-29T16:51:31.176Z,4.50
2023-03-29T16:54:34.555Z,4.03
2023-03-29T16:57:37.537Z,6.03
2023-03-29T17:00:41.244Z,16.62
2023-03-29T17:03:45.964Z,8.57
2023-03-29T17:06:49.587Z,8.57
2023-03-29T17:09:52.839Z,6.07
2023-03-29T17:12:56.385Z,8.32
2023-03-29T17:15:59.763Z,27.75
2023-03-29T17:19:03.379Z,13.68
2023-03-29T17:22:06.949Z,11.27
2023-03-29T17:25:10.677Z,11.07
2023-03-29T17:28:13.979Z,9.65
2023-03-29T17:31:19.933Z,7.80
2023-03-29T17:34:23.999Z,8.43
2023-03-29T17:37:31.131Z,9.27
2023-03-29T17:40:34.366Z,10.47
2023-03-29T17:43:38.319Z,9.68
2023-03-29T17:46:41.549Z,9.52
2023-03-29T17:49:45.170Z,6.87
2023-03-29T17:52:52.649Z,11.10
2023-03-29T17:55:56.851Z,8.23
2023-03-29T17:59:00.839Z,8.63
2023-03-29T18:02:06.334Z,8.25
2023-03-29T18:05:15.295Z,12.27
2023-03-29T18:08:19.244Z,7.97
2023-03-29T18:11:25.449Z,9.10
2023-03-29T18:14:29.007Z,24.98
2023-03-29T18:17:33.237Z,34.55
2023-03-29T18:20:36.585Z,23.40
2023-03-29T18:23:42.654Z,34.80
2023-03-29T18:26:45.949Z,12.90
2023-03-29T18:29:50.824Z,9.10
2023-03-29T18:32:55.115Z,11.32
2023-03-29T18:35:58.752Z,26.35
2023-03-29T18:39:06.011Z,23.90
2023-03-29T18:42:12.277Z,10.17
2023-03-29T18:45:17.014Z,12.82
2023-03-29T18:48:23.326Z,36.08
2023-03-29T18:51:29.313Z,25.55
2023-03-29T18:54:34.840Z,18.80
2023-03-29T18:57:39.140Z,20.63
2023-03-29T19:00:45.053Z,35.00
2023-03-29T19:03:49.372Z,24.90
2023-03-29T19:06:56.684Z,23.17
2023-03-29T19:10:00.760Z,27.23
2023-03-29T19:13:06.377Z,15.40
2023-03-29T19:16:11.186Z,12.43
2023-03-29T19:19:15.077Z,10.13
2023-03-29T19:22:19.161Z,13.77
2023-03-29T19:25:24.066Z,14.20
2023-03-29T19:28:28.167Z,13.20
2023-03-29T19:31:36.618Z,9.27
2023-03-29T19:34:41.418Z,11.80
2023-03-29T19:37:45.894Z,19.40
2023-03-29T19:40:52.228Z,26.53
2023-03-29T19:43:57.042Z,21.37
2023-03-29T19:47:01.022Z,19.52
2023-03-29T19:50:06.022Z,15.75
2023-03-29T19:53:12.185Z,15.15
2023-03-29T19:56:16.275Z,14.33
2023-03-29T19:59:20.791Z,10.67
2023-03-29T20:02:27.781Z,11.05
2023-03-29T20:05:31.660Z,11.15
2023-03-29T20:08:39.176Z,9.63
2023-03-29T20:11:44.570Z,11.00
2023-03-29T20:14:47.626Z,8.97
2023-03-29T20:17:53.199Z,9.75
2023-03-29T20:20:57.687Z,9.65
2023-03-29T20:24:01.417Z,10.70
2023-03-29T20:27:04.755Z,8.00
2023-03-29T20:30:10.152Z,9.43
2023-03-29T20:33:13.689Z,6.62
2023-03-29T20:36:23.155Z,8.57
2023-03-29T20:39:26.968Z,11.98
2023-03-29T20:42:31.166Z,7.87
2023-03-29T20:45:42.931Z,9.63
2023-03-29T20:48:54.984Z,7.55
2023-03-29T20:52:03.539Z,7.30
2023-03-29T20:55:06.938Z,5.12
2023-03-29T20:58:09.823Z,6.27
2023-03-29T21:01:14.567Z,8.93
2023-03-29T21:04:17.471Z,6.62
2023-03-29T21:07:21.944Z,5.15
2023-03-29T21:10:26.444Z,5.85
2023-03-29T21:13:29.558Z,5.87
2023-03-29T21:16:32.484Z,4.77
2023-03-29T21:19:38.339Z,5.53
2023-03-29T21:22:43.338Z,5.37
2023-03-29T21:25:46.402Z,5.22
2023-03-29T21:28:49.285Z,6.10
2023-03-29T21:31:52.375Z,9.17
2023-03-29T21:34:55.207Z,9.82
2023-03-29T21:37:58.282Z,10.27
2023-03-29T21:41:02.662Z,12.32
2023-03-29T21:44:06.276Z,8.17
2023-03-29T21:47:09.338Z,8.33
2023-03-29T21:50:12.698Z,7.75
2023-03-29T21:53:16.295Z,8.23
2023-03-29T21:56:19.364Z,6.68
2023-03-29T21:59:22.055Z,6.77
2023-03-29T22:02:25.376Z,16.33
2023-03-29T22:05:28.685Z,9.88
2023-03-29T22:08:31.774Z,22.08
2023-03-29T22:11:34.955Z,11.12
2023-03-29T22:14:37.851Z,12.83
2023-03-29T22:17:43.001Z,16.03
2023-03-29T22:20:46.929Z,13.65
2023-03-29T22:23:52.788Z,16.98
2023-03-29T22:26:55.576Z,10.73
2023-03-29T22:29:59.012Z,11.60
2023-03-29T22:33:01.897Z,11.30
2023-03-29T22:36:27.141Z,10.18
2023-03-29T22:39:30.249Z,8.93
2023-03-29T22:42:33.379Z,8.80
2023-03-29T22:45:36.574Z,6.87
2023-03-29T22:48:40.260Z,8.40
2023-03-29T22:51:43.133Z,13.23
2023-03-29T22:54:46.494Z,7.82
2023-03-29T22:57:49.402Z,6.07
2023-03-29T23:00:53.415Z,8.33
2023-03-29T23:03:56.491Z,7.43
2023-03-29T23:07:00.468Z,7.80
2023-03-29T23:10:07.854Z,8.57
2023-03-29T23:13:13.079Z,8.75
2023-03-29T23:16:15.981Z,7.90
2023-03-29T23:19:19.438Z,8.03
2023-03-29T23:22:22.883Z,7.87
2023-03-29T23:25:27.777Z,7.78
2023-03-29T23:28:31.690Z,8.98
2023-03-29T23:31:37.953Z,8.67
2023-03-29T23:34:40.980Z,9.67
2023-03-29T23:37:45.188Z,8.32
2023-03-29T23:40:58.969Z,10.00
2023-03-29T23:44:03.833Z,6.82
2023-03-29T23:47:07.445Z,6.57
2023-03-29T23:50:17.004Z,9.97
2023-03-29T23:53:21.071Z,6.40
2023-03-29T23:56:24.525Z,5.15
2023-03-29T23:59:30.838Z,7.15
